sensor_id;sensor_type;location;lat;lon;timestamp;pressure;altitude;pressure_sealevel;temperature;humidity
60373;BME280;46216;52.220;5.134;2022-10-16T00:00:40;101065.03;;;14.53;100.00
60373;BME280;46216;52.220;5.134;2022-10-16T00:03:06;101071.22;;;14.53;100.00
60373;BME280;46216;52.220;5.134;2022-10-16T00:05:32;101066.13;;;14.50;100.00
60373;BME280;46216;52.220;5.134;2022-10-16T00:07:58;101068.19;;;14.47;100.00
60373;BME280;46216;52.220;5.134;2022-10-16T00:10:24;101068.94;;;14.49;100.00
60373;BME280;46216;52.220;5.134;2022-10-16T00:12:49;101062.50;;;14.51;100.00
60373;BME280;46216;52.220;5.134;2022-10-16T00:15:15;101064.19;;;14.52;100.00
60373;BME280;46216;52.220;5.134;2022-10-16T00:17:40;101067.94;;;14.50;100.00
60373;BME280;46216;52.220;5.134;2022-10-16T00:20:06;101062.50;;;14.51;100.00
60373;BME280;46216;52.220;5.134;2022-10-16T00:22:32;101061.03;;;14.47;100.00
60373;BME280;46216;52.220;5.134;2022-10-16T00:24:58;101052.59;;;14.52;100.00
60373;BME280;46216;52.220;5.134;2022-10-16T00:27:23;101048.31;;;14.49;100.00
60373;BME280;46216;52.220;5.134;2022-10-16T00:29:52;101042.94;;;14.49;100.00
60373;BME280;46216;52.220;5.134;2022-10-16T00:32:18;101041.72;;;14.53;100.00
60373;BME280;46216;52.220;5.134;2022-10-16T00:34:44;101057.81;;;14.53;100.00
60373;BME280;46216;52.220;5.134;2022-10-16T00:37:10;101058.81;;;14.52;100.00
60373;BME280;46216;52.220;5.134;2022-10-16T00:39:36;101050.03;;;14.50;100.00
60373;BME280;46216;52.220;5.134;2022-10-16T00:42:01;101055.13;;;14.53;100.00
60373;BME280;46216;52.220;5.134;2022-10-16T00:44:46;101049.31;;;14.48;100.00
60373;BME280;46216;52.220;5.134;2022-10-16T00:47:17;101052.00;;;14.48;100.00
60373;BME280;46216;52.220;5.134;2022-10-16T00:49:44;101058.47;;;14.46;100.00
60373;BME280;46216;52.220;5.134;2022-10-16T00:52:11;101068.34;;;14.45;100.00
60373;BME280;46216;52.220;5.134;2022-10-16T00:54:37;101057.19;;;14.50;100.00
60373;BME280;46216;52.220;5.134;2022-10-16T00:57:05;101050.91;;;14.51;100.00
60373;BME280;46216;52.220;5.134;2022-10-16T00:59:38;101054.44;;;14.51;100.00
60373;BME280;46216;52.220;5.134;2022-10-16T01:02:08;101070.63;;;14.50;100.00
60373;BME280;46216;52.220;5.134;2022-10-16T01:04:53;101047.25;;;14.52;100.00
60373;BME280;46216;52.220;5.134;2022-10-16T01:10:34;101048.41;;;14.59;100.00
60373;BME280;46216;52.220;5.134;2022-10-16T01:13:10;101043.03;;;14.59;100.00
60373;BME280;46216;52.220;5.134;2022-10-16T01:15:51;101046.47;;;14.61;100.00
60373;BME280;46216;52.220;5.134;2022-10-16T01:18:31;101048.72;;;14.65;100.00
60373;BME280;46216;52.220;5.134;2022-10-16T01:21:06;101043.94;;;14.69;100.00
60373;BME280;46216;52.220;5.134;2022-10-16T01:24:02;101037.84;;;14.67;100.00
60373;BME280;46216;52.220;5.134;2022-10-16T01:27:01;101043.81;;;14.71;100.00
60373;BME280;46216;52.220;5.134;2022-10-16T01:29:55;101041.41;;;14.68;100.00
60373;BME280;46216;52.220;5.134;2022-10-16T01:32:32;101041.13;;;14.71;100.00
60373;BME280;46216;52.220;5.134;2022-10-16T01:35:02;101037.47;;;14.72;100.00
60373;BME280;46216;52.220;5.134;2022-10-16T01:37:54;101050.56;;;14.65;100.00
60373;BME280;46216;52.220;5.134;2022-10-16T01:40:25;101055.66;;;14.68;100.00
60373;BME280;46216;52.220;5.134;2022-10-16T01:42:56;101049.78;;;14.74;100.00
60373;BME280;46216;52.220;5.134;2022-10-16T01:45:25;101046.22;;;14.74;100.00
60373;BME280;46216;52.220;5.134;2022-10-16T01:47:53;101052.56;;;14.73;100.00
60373;BME280;46216;52.220;5.134;2022-10-16T01:50:20;101044.41;;;14.74;100.00
60373;BME280;46216;52.220;5.134;2022-10-16T01:52:49;101046.47;;;14.71;100.00
60373;BME280;46216;52.220;5.134;2022-10-16T01:55:24;101056.25;;;14.72;100.00
60373;BME280;46216;52.220;5.134;2022-10-16T01:57:53;101062.31;;;14.74;100.00
60373;BME280;46216;52.220;5.134;2022-10-16T02:00:20;101063.19;;;14.74;100.00
60373;BME280;46216;52.220;5.134;2022-10-16T02:02:49;101077.81;;;14.70;100.00
60373;BME280;46216;52.220;5.134;2022-10-16T02:07:47;101074.19;;;14.71;100.00
60373;BME280;46216;52.220;5.134;2022-10-16T02:10:12;101085.19;;;14.68;100.00
60373;BME280;46216;52.220;5.134;2022-10-16T02:12:41;101086.28;;;14.65;100.00
60373;BME280;46216;52.220;5.134;2022-10-16T02:15:09;101080.78;;;14.67;100.00
60373;BME280;46216;52.220;5.134;2022-10-16T02:17:35;101088.91;;;14.56;100.00
60373;BME280;46216;52.220;5.134;2022-10-16T02:20:00;101083.13;;;14.60;100.00
60373;BME280;46216;52.220;5.134;2022-10-16T02:22:30;101090.75;;;14.55;100.00
60373;BME280;46216;52.220;5.134;2022-10-16T02:25:02;101097.78;;;14.56;100.00
60373;BME280;46216;52.220;5.134;2022-10-16T02:27:41;101095.88;;;14.47;100.00
60373;BME280;46216;52.220;5.134;2022-10-16T02:30:14;101103.94;;;14.47;100.00
60373;BME280;46216;52.220;5.134;2022-10-16T02:32:45;101111.25;;;14.45;100.00
60373;BME280;46216;52.220;5.134;2022-10-16T02:35:12;101106.13;;;14.42;100.00
60373;BME280;46216;52.220;5.134;2022-10-16T02:37:39;101111.84;;;14.49;100.00
60373;BME280;46216;52.220;5.134;2022-10-16T02:40:06;101111.00;;;14.48;100.00
60373;BME280;46216;52.220;5.134;2022-10-16T02:42:38;101103.19;;;14.45;100.00
60373;BME280;46216;52.220;5.134;2022-10-16T02:45:05;101113.66;;;14.48;100.00
60373;BME280;46216;52.220;5.134;2022-10-16T02:47:30;101109.28;;;14.47;100.00
60373;BME280;46216;52.220;5.134;2022-10-16T02:49:55;101112.69;;;14.49;100.00
60373;BME280;46216;52.220;5.134;2022-10-16T02:52:21;101116.34;;;14.48;100.00
60373;BME280;46216;52.220;5.134;2022-10-16T02:54:46;101116.34;;;14.48;100.00
60373;BME280;46216;52.220;5.134;2022-10-16T02:57:12;101108.41;;;14.47;100.00
60373;BME280;46216;52.220;5.134;2022-10-16T02:59:37;101110.75;;;14.51;100.00
60373;BME280;46216;52.220;5.134;2022-10-16T03:02:03;101109.28;;;14.47;100.00
60373;BME280;46216;52.220;5.134;2022-10-16T03:04:28;101111.09;;;14.47;100.00
60373;BME280;46216;52.220;5.134;2022-10-16T03:06:53;101110.25;;;14.46;100.00
60373;BME280;46216;52.220;5.134;2022-10-16T03:09:19;101100.78;;;14.42;100.00
60373;BME280;46216;52.220;5.134;2022-10-16T03:11:44;101100.53;;;14.45;100.00
60373;BME280;46216;52.220;5.134;2022-10-16T03:14:09;101105.72;;;14.47;100.00
60373;BME280;46216;52.220;5.134;2022-10-16T03:16:34;101106.28;;;14.40;100.00
60373;BME280;46216;52.220;5.134;2022-10-16T03:19:00;101103.47;;;14.42;100.00
60373;BME280;46216;52.220;5.134;2022-10-16T03:21:25;101101.03;;;14.39;100.00
60373;BME280;46216;52.220;5.134;2022-10-16T03:23:50;101103.72;;;14.39;100.00
60373;BME280;46216;52.220;5.134;2022-10-16T03:26:16;101110.19;;;14.36;100.00
60373;BME280;46216;52.220;5.134;2022-10-16T03:28:41;101122.47;;;14.39;100.00
60373;BME280;46216;52.220;5.134;2022-10-16T03:31:06;101116.53;;;14.35;100.00
60373;BME280;46216;52.220;5.134;2022-10-16T03:33:32;101122.72;;;14.36;100.00
60373;BME280;46216;52.220;5.134;2022-10-16T03:35:58;101136.88;;;14.38;100.00
60373;BME280;46216;52.220;5.134;2022-10-16T03:38:23;101130.91;;;14.34;100.00
60373;BME280;46216;52.220;5.134;2022-10-16T03:40:48;101139.94;;;14.33;100.00
60373;BME280;46216;52.220;5.134;2022-10-16T03:43:14;101144.44;;;14.33;100.00
60373;BME280;46216;52.220;5.134;2022-10-16T03:45:39;101147.38;;;14.30;100.00
60373;BME280;46216;52.220;5.134;2022-10-16T03:48:05;101137.13;;;14.35;100.00
60373;BME280;46216;52.220;5.134;2022-10-16T03:50:30;101142.25;;;14.38;100.00
60373;BME280;46216;52.220;5.134;2022-10-16T03:52:56;101137.72;;;14.38;100.00
60373;BME280;46216;52.220;5.134;2022-10-16T03:55:21;101133.47;;;14.36;100.00
60373;BME280;46216;52.220;5.134;2022-10-16T03:57:46;101147.72;;;14.36;100.00
60373;BME280;46216;52.220;5.134;2022-10-16T04:00:12;101143.22;;;14.37;100.00
60373;BME280;46216;52.220;5.134;2022-10-16T04:02:38;101145.56;;;14.30;100.00
60373;BME280;46216;52.220;5.134;2022-10-16T04:05:03;101149.81;;;14.33;100.00
60373;BME280;46216;52.220;5.134;2022-10-16T04:07:29;101154.31;;;14.32;100.00
60373;BME280;46216;52.220;5.134;2022-10-16T04:09:54;101154.91;;;14.36;100.00
60373;BME280;46216;52.220;5.134;2022-10-16T04:12:20;101152.22;;;14.36;100.00
60373;BME280;46216;52.220;5.134;2022-10-16T04:14:46;101154.91;;;14.36;100.00
60373;BME280;46216;52.220;5.134;2022-10-16T04:17:11;101162.25;;;14.34;100.00
60373;BME280;46216;52.220;5.134;2022-10-16T04:19:36;101160.53;;;14.33;100.00
60373;BME280;46216;52.220;5.134;2022-10-16T04:22:02;101165.88;;;14.33;100.00
60373;BME280;46216;52.220;5.134;2022-10-16T04:24:27;101167.88;;;14.31;100.00
60373;BME280;46216;52.220;5.134;2022-10-16T04:26:53;101178.44;;;14.32;100.00
60373;BME280;46216;52.220;5.134;2022-10-16T04:29:18;101183.09;;;14.30;100.00
60373;BME280;46216;52.220;5.134;2022-10-16T04:31:43;101182.22;;;14.30;100.00
60373;BME280;46216;52.220;5.134;2022-10-16T04:34:08;101192.69;;;14.33;100.00
60373;BME280;46216;52.220;5.134;2022-10-16T04:36:34;101191.41;;;14.27;100.00
60373;BME280;46216;52.220;5.134;2022-10-16T04:38:59;101201.88;;;14.30;100.00
60373;BME280;46216;52.220;5.134;2022-10-16T04:41:24;101203.69;;;14.30;100.00
60373;BME280;46216;52.220;5.134;2022-10-16T04:43:50;101204.56;;;14.30;100.00
60373;BME280;46216;52.220;5.134;2022-10-16T04:46:15;101207.34;;;14.29;100.00
60373;BME280;46216;52.220;5.134;2022-10-16T04:48:40;101214.53;;;14.28;100.00
60373;BME280;46216;52.220;5.134;2022-10-16T04:51:06;101206.50;;;14.28;100.00
60373;BME280;46216;52.220;5.134;2022-10-16T04:53:31;101206.63;;;14.27;100.00
60373;BME280;46216;52.220;5.134;2022-10-16T04:55:56;101213.09;;;14.24;100.00
60373;BME280;46216;52.220;5.134;2022-10-16T04:58:22;101216.63;;;14.25;100.00
60373;BME280;46216;52.220;5.134;2022-10-16T05:00:48;101226.59;;;14.23;100.00
60373;BME280;46216;52.220;5.134;2022-10-16T05:03:13;101227.34;;;14.25;100.00
60373;BME280;46216;52.220;5.134;2022-10-16T05:05:44;101237.22;;;14.24;100.00
60373;BME280;46216;52.220;5.134;2022-10-16T05:08:11;101239.06;;;14.24;100.00
60373;BME280;46216;52.220;5.134;2022-10-16T05:10:37;101253.41;;;14.23;100.00
60373;BME280;46216;52.220;5.134;2022-10-16T05:13:02;101260.75;;;14.20;100.00
60373;BME280;46216;52.220;5.134;2022-10-16T05:15:28;101263.44;;;14.20;100.00
60373;BME280;46216;52.220;5.134;2022-10-16T05:17:54;101262.69;;;14.18;100.00
60373;BME280;46216;52.220;5.134;2022-10-16T05:20:20;101271.72;;;14.17;100.00
60373;BME280;46216;52.220;5.134;2022-10-16T05:22:45;101267.34;;;14.16;100.00
60373;BME280;46216;52.220;5.134;2022-10-16T05:25:11;101267.19;;;14.18;100.00
60373;BME280;46216;52.220;5.134;2022-10-16T05:27:36;101276.00;;;14.20;100.00
60373;BME280;46216;52.220;5.134;2022-10-16T05:30:02;101277.06;;;14.17;100.00
60373;BME280;46216;52.220;5.134;2022-10-16T05:32:28;101284.88;;;14.20;100.00
60373;BME280;46216;52.220;5.134;2022-10-16T05:34:53;101288.50;;;14.19;100.00
60373;BME280;46216;52.220;5.134;2022-10-16T05:37:18;101289.38;;;14.20;100.00
60373;BME280;46216;52.220;5.134;2022-10-16T05:39:44;101298.53;;;14.17;100.00
60373;BME280;46216;52.220;5.134;2022-10-16T05:42:09;101295.84;;;14.17;100.00
60373;BME280;46216;52.220;5.134;2022-10-16T05:44:35;101307.66;;;14.15;100.00
60373;BME280;46216;52.220;5.134;2022-10-16T05:47:00;101304.00;;;14.16;100.00
60373;BME280;46216;52.220;5.134;2022-10-16T05:49:25;101305.72;;;14.17;100.00
60373;BME280;46216;52.220;5.134;2022-10-16T05:51:50;101326.81;;;14.10;100.00
60373;BME280;46216;52.220;5.134;2022-10-16T05:54:16;101323.97;;;14.12;100.00
60373;BME280;46216;52.220;5.134;2022-10-16T05:56:41;101330.31;;;14.11;100.00
60373;BME280;46216;52.220;5.134;2022-10-16T05:59:07;101331.31;;;14.10;100.00
60373;BME280;46216;52.220;5.134;2022-10-16T06:01:32;101330.69;;;14.06;100.00
60373;BME280;46216;52.220;5.134;2022-10-16T06:03:58;101347.63;;;14.07;100.00
60373;BME280;46216;52.220;5.134;2022-10-16T06:06:25;101345.28;;;14.02;100.00
60373;BME280;46216;52.220;5.134;2022-10-16T06:08:52;101349.19;;;13.98;100.00
60373;BME280;46216;52.220;5.134;2022-10-16T06:11:21;101338.97;;;13.92;100.00
60373;BME280;46216;52.220;5.134;2022-10-16T06:13:55;101335.66;;;13.88;100.00
60373;BME280;46216;52.220;5.134;2022-10-16T06:16:22;101344.19;;;13.82;100.00
60373;BME280;46216;52.220;5.134;2022-10-16T06:18:47;101341.78;;;13.79;100.00
60373;BME280;46216;52.220;5.134;2022-10-16T06:21:20;101350.16;;;13.75;100.00
60373;BME280;46216;52.220;5.134;2022-10-16T06:23:46;101340.41;;;13.73;100.00
60373;BME280;46216;52.220;5.134;2022-10-16T06:26:14;101340.66;;;13.70;100.00
60373;BME280;46216;52.220;5.134;2022-10-16T06:28:40;101340.66;;;13.70;100.00
60373;BME280;46216;52.220;5.134;2022-10-16T06:31:07;101347.72;;;13.71;100.00
60373;BME280;46216;52.220;5.134;2022-10-16T06:33:33;101357.81;;;13.68;100.00
60373;BME280;46216;52.220;5.134;2022-10-16T06:36:13;101360.84;;;13.63;100.00
60373;BME280;46216;52.220;5.134;2022-10-16T06:38:39;101351.84;;;13.64;100.00
60373;BME280;46216;52.220;5.134;2022-10-16T06:41:06;101352.91;;;13.62;100.00
60373;BME280;46216;52.220;5.134;2022-10-16T06:43:32;101352.91;;;13.62;100.00
60373;BME280;46216;52.220;5.134;2022-10-16T06:46:01;101354.66;;;13.63;100.00
60373;BME280;46216;52.220;5.134;2022-10-16T06:48:27;101356.56;;;13.61;100.00
60373;BME280;46216;52.220;5.134;2022-10-16T06:51:00;101365.81;;;13.57;100.00
60373;BME280;46216;52.220;5.134;2022-10-16T06:53:28;101357.66;;;13.58;100.00
60373;BME280;46216;52.220;5.134;2022-10-16T06:55:54;101373.00;;;13.56;100.00
60373;BME280;46216;52.220;5.134;2022-10-16T06:58:20;101373.00;;;13.56;100.00
60373;BME280;46216;52.220;5.134;2022-10-16T07:00:46;101375.69;;;13.56;100.00
60373;BME280;46216;52.220;5.134;2022-10-16T07:03:12;101378.59;;;13.53;100.00
60373;BME280;46216;52.220;5.134;2022-10-16T07:05:38;101388.09;;;13.57;100.00
60373;BME280;46216;52.220;5.134;2022-10-16T07:08:04;101390.53;;;13.60;100.00
60373;BME280;46216;52.220;5.134;2022-10-16T07:10:30;101403.94;;;13.60;100.00
60373;BME280;46216;52.220;5.134;2022-10-16T07:12:56;101403.94;;;13.60;100.00
60373;BME280;46216;52.220;5.134;2022-10-16T07:15:21;101405.88;;;13.58;100.00
60373;BME280;46216;52.220;5.134;2022-10-16T07:17:46;101411.00;;;13.61;100.00
60373;BME280;46216;52.220;5.134;2022-10-16T07:20:12;101409.28;;;13.60;100.00
60373;BME280;46216;52.220;5.134;2022-10-16T07:22:37;101421.69;;;13.61;100.00
60373;BME280;46216;52.220;5.134;2022-10-16T07:25:03;101432.41;;;13.61;100.00
60373;BME280;46216;52.220;5.134;2022-10-16T07:27:28;101430.50;;;13.63;100.00
60373;BME280;46216;52.220;5.134;2022-10-16T07:29:54;101439.38;;;13.64;100.00
60373;BME280;46216;52.220;5.134;2022-10-16T07:32:19;101439.72;;;13.59;100.00
60373;BME280;46216;52.220;5.134;2022-10-16T07:34:44;101448.63;;;13.60;100.00
60373;BME280;46216;52.220;5.134;2022-10-16T07:37:10;101449.47;;;13.60;100.00
60373;BME280;46216;52.220;5.134;2022-10-16T07:39:36;101453.84;;;13.61;100.00
60373;BME280;46216;52.220;5.134;2022-10-16T07:42:01;101472.81;;;13.58;100.00
60373;BME280;46216;52.220;5.134;2022-10-16T07:44:27;101482.59;;;13.59;100.00
60373;BME280;46216;52.220;5.134;2022-10-16T07:46:52;101485.03;;;13.62;100.00
60373;BME280;46216;52.220;5.134;2022-10-16T07:49:18;101491.13;;;13.64;100.00
60373;BME280;46216;52.220;5.134;2022-10-16T07:51:43;101494.53;;;13.66;100.00
60373;BME280;46216;52.220;5.134;2022-10-16T07:54:09;101485.31;;;13.70;100.00
60373;BME280;46216;52.220;5.134;2022-10-16T07:56:35;101491.19;;;13.76;100.00
60373;BME280;46216;52.220;5.134;2022-10-16T07:59:00;101500.16;;;13.75;100.00
60373;BME280;46216;52.220;5.134;2022-10-16T08:01:26;101500.69;;;13.80;100.00
60373;BME280;46216;52.220;5.134;2022-10-16T08:03:52;101497.78;;;13.83;100.00
60373;BME280;46216;52.220;5.134;2022-10-16T08:06:19;101504.09;;;13.82;100.00
60373;BME280;46216;52.220;5.134;2022-10-16T08:08:44;101507.06;;;13.90;100.00
60373;BME280;46216;52.220;5.134;2022-10-16T08:11:10;101513.88;;;13.94;100.00
60373;BME280;46216;52.220;5.134;2022-10-16T08:13:35;101510.00;;;13.98;100.00
60373;BME280;46216;52.220;5.134;2022-10-16T08:16:01;101517.66;;;14.03;100.00
60373;BME280;46216;52.220;5.134;2022-10-16T08:18:27;101529.03;;;14.06;100.00
60373;BME280;46216;52.220;5.134;2022-10-16T08:20:56;101526.09;;;14.09;100.00
60373;BME280;46216;52.220;5.134;2022-10-16T08:23:26;101535.63;;;14.13;100.00
60373;BME280;46216;52.220;5.134;2022-10-16T08:25:53;101530.03;;;14.16;100.00
60373;BME280;46216;52.220;5.134;2022-10-16T08:28:19;101531.50;;;14.20;100.00
60373;BME280;46216;52.220;5.134;2022-10-16T08:30:44;101534.66;;;14.26;100.00
60373;BME280;46216;52.220;5.134;2022-10-16T08:33:09;101540.31;;;14.34;100.00
60373;BME280;46216;52.220;5.134;2022-10-16T08:35:35;101536.53;;;14.36;100.00
60373;BME280;46216;52.220;5.134;2022-10-16T08:38:03;101533.50;;;14.41;100.00
60373;BME280;46216;52.220;5.134;2022-10-16T08:40:30;101553.50;;;14.48;100.00
60373;BME280;46216;52.220;5.134;2022-10-16T08:43:11;101552.31;;;14.52;100.00
60373;BME280;46216;52.220;5.134;2022-10-16T08:50:56;101567.22;;;14.68;100.00
60373;BME280;46216;52.220;5.134;2022-10-16T08:53:33;101569.78;;;14.69;100.00
60373;BME280;46216;52.220;5.134;2022-10-16T08:55:58;101580.88;;;14.76;100.00
60373;BME280;46216;52.220;5.134;2022-10-16T08:58:29;101582.34;;;14.80;100.00
60373;BME280;46216;52.220;5.134;2022-10-16T09:00:57;101579.03;;;14.87;100.00
60373;BME280;46216;52.220;5.134;2022-10-16T09:06:14;101580.03;;;14.86;100.00
60373;BME280;46216;52.220;5.134;2022-10-16T09:17:13;101614.47;;;15.15;100.00
60373;BME280;46216;52.220;5.134;2022-10-16T09:19:51;101618.72;;;15.18;100.00
60373;BME280;46216;52.220;5.134;2022-10-16T09:22:21;101617.88;;;15.17;100.00
60373;BME280;46216;52.220;5.134;2022-10-16T09:24:50;101620.44;;;15.19;100.00
60373;BME280;46216;52.220;5.134;2022-10-16T09:27:15;101618.22;;;15.24;100.00
60373;BME280;46216;52.220;5.134;2022-10-16T09:29:41;101626.41;;;15.33;100.00
60373;BME280;46216;52.220;5.134;2022-10-16T09:32:12;101616.03;;;15.40;100.00
60373;BME280;46216;52.220;5.134;2022-10-16T09:34:42;101621.00;;;15.45;100.00
60373;BME280;46216;52.220;5.134;2022-10-16T09:37:12;101630.41;;;15.50;100.00
60373;BME280;46216;52.220;5.134;2022-10-16T09:40:04;101629.31;;;15.53;100.00
60373;BME280;46216;52.220;5.134;2022-10-16T09:42:32;101626.75;;;15.63;100.00
60373;BME280;46216;52.220;5.134;2022-10-16T09:44:59;101634.91;;;15.72;100.00
60373;BME280;46216;52.220;5.134;2022-10-16T09:47:29;101631.88;;;15.77;100.00
60373;BME280;46216;52.220;5.134;2022-10-16T09:49:57;101633.06;;;15.84;100.00
60373;BME280;46216;52.220;5.134;2022-10-16T09:52:25;101630.84;;;15.89;100.00
60373;BME280;46216;52.220;5.134;2022-10-16T09:54:54;101639.25;;;15.96;100.00
60373;BME280;46216;52.220;5.134;2022-10-16T09:57:21;101639.75;;;16.01;100.00
60373;BME280;46216;52.220;5.134;2022-10-16T09:59:48;101632.72;;;16.09;100.00
60373;BME280;46216;52.220;5.134;2022-10-16T10:02:16;101635.06;;;16.14;100.00
60373;BME280;46216;52.220;5.134;2022-10-16T10:04:49;101636.63;;;16.17;100.00
60373;BME280;46216;52.220;5.134;2022-10-16T10:07:23;101641.03;;;16.18;100.00
60373;BME280;46216;52.220;5.134;2022-10-16T10:09:49;101640.19;;;16.17;100.00
60373;BME280;46216;52.220;5.134;2022-10-16T10:12:19;101642.63;;;16.20;100.00
60373;BME280;46216;52.220;5.134;2022-10-16T10:14:50;101646.41;;;16.18;100.00
60373;BME280;46216;52.220;5.134;2022-10-16T10:17:22;101643.72;;;16.18;100.00
60373;BME280;46216;52.220;5.134;2022-10-16T10:19:52;101639.06;;;16.20;100.00
60373;BME280;46216;52.220;5.134;2022-10-16T10:22:30;101635.16;;;16.24;100.00
60373;BME280;46216;52.220;5.134;2022-10-16T10:27:48;101649.03;;;16.29;100.00
60373;BME280;46216;52.220;5.134;2022-10-16T10:40:59;101670.56;;;16.61;100.00
60373;BME280;46216;52.220;5.134;2022-10-16T10:43:52;101664.88;;;16.75;100.00
60373;BME280;46216;52.220;5.134;2022-10-16T11:00:03;101671.28;;;17.05;100.00
60373;BME280;46216;52.220;5.134;2022-10-16T11:02:54;101672.94;;;16.96;100.00
60373;BME280;46216;52.220;5.134;2022-10-16T11:05:56;101675.31;;;16.90;100.00
60373;BME280;46216;52.220;5.134;2022-10-16T11:11:07;101687.19;;;16.87;100.00
60373;BME280;46216;52.220;5.134;2022-10-16T11:16:26;101682.44;;;17.00;100.00
60373;BME280;46216;52.220;5.134;2022-10-16T11:19:03;101674.56;;;17.09;100.00
60373;BME280;46216;52.220;5.134;2022-10-16T11:21:41;101681.13;;;17.16;100.00
60373;BME280;46216;52.220;5.134;2022-10-16T11:24:23;101673.91;;;17.16;100.00
60373;BME280;46216;52.220;5.134;2022-10-16T11:26:50;101685.16;;;17.31;100.00
60373;BME280;46216;52.220;5.134;2022-10-16T11:29:31;101687.31;;;17.37;100.00
60373;BME280;46216;52.220;5.134;2022-10-16T11:32:01;101680.84;;;17.49;100.00
60373;BME280;46216;52.220;5.134;2022-10-16T11:34:35;101682.72;;;17.59;100.00
60373;BME280;46216;52.220;5.134;2022-10-16T11:37:17;101680.22;;;17.67;100.00
60373;BME280;46216;52.220;5.134;2022-10-16T11:39:45;101685.06;;;17.73;100.00
60373;BME280;46216;52.220;5.134;2022-10-16T11:42:22;101684.91;;;17.74;100.00
60373;BME280;46216;52.220;5.134;2022-10-16T11:45:23;101684.50;;;17.79;100.00
60373;BME280;46216;52.220;5.134;2022-10-16T11:47:45;101668.72;;;17.74;100.00
60373;BME280;46216;52.220;5.134;2022-10-16T11:50:35;101671.69;;;17.71;100.00
60373;BME280;46216;52.220;5.134;2022-10-16T11:55:52;101677.41;;;17.78;100.00
60373;BME280;46216;52.220;5.134;2022-10-16T12:08:54;101672.88;;;17.79;100.00
60373;BME280;46216;52.220;5.134;2022-10-16T12:16:30;101679.44;;;17.95;100.00
60373;BME280;46216;52.220;5.134;2022-10-16T12:19:16;101676.72;;;17.86;100.00
60373;BME280;46216;52.220;5.134;2022-10-16T12:21:43;101684.00;;;17.95;100.00
60373;BME280;46216;52.220;5.134;2022-10-16T12:26:55;101681.31;;;18.05;100.00
60373;BME280;46216;52.220;5.134;2022-10-16T12:29:32;101684.72;;;18.07;100.00
60373;BME280;46216;52.220;5.134;2022-10-16T12:31:59;101681.06;;;18.17;100.00
60373;BME280;46216;52.220;5.134;2022-10-16T12:34:41;101699.50;;;18.22;100.00
60373;BME280;46216;52.220;5.134;2022-10-16T12:37:11;101697.53;;;18.24;100.00
60373;BME280;46216;52.220;5.134;2022-10-16T12:39:39;101690.84;;;18.18;100.00
60373;BME280;46216;52.220;5.134;2022-10-16T12:44:46;101687.16;;;18.19;100.00
60373;BME280;46216;52.220;5.134;2022-10-16T12:49:58;101685.16;;;18.12;100.00
60373;BME280;46216;52.220;5.134;2022-10-16T12:52:27;101691.38;;;18.03;100.00
60373;BME280;46216;52.220;5.134;2022-10-16T12:54:56;101698.22;;;17.97;100.00
60373;BME280;46216;52.220;5.134;2022-10-16T13:00:22;101690.78;;;17.89;100.00
60373;BME280;46216;52.220;5.134;2022-10-16T13:11:24;101703.28;;;17.81;100.00
60373;BME280;46216;52.220;5.134;2022-10-16T13:22:05;101704.63;;;17.75;100.00
60373;BME280;46216;52.220;5.134;2022-10-16T13:27:37;101717.41;;;17.73;100.00
60373;BME280;46216;52.220;5.134;2022-10-16T13:30:13;101716.41;;;17.74;100.00
60373;BME280;46216;52.220;5.134;2022-10-16T13:32:44;101725.97;;;17.78;100.00
60373;BME280;46216;52.220;5.134;2022-10-16T13:35:22;101731.59;;;17.75;100.00
60373;BME280;46216;52.220;5.134;2022-10-16T13:37:48;101737.75;;;17.77;100.00
60373;BME280;46216;52.220;5.134;2022-10-16T13:40:23;101740.44;;;17.77;100.00
60373;BME280;46216;52.220;5.134;2022-10-16T13:42:50;101745.56;;;17.80;100.00
60373;BME280;46216;52.220;5.134;2022-10-16T13:45:23;101753.38;;;17.83;100.00
60373;BME280;46216;52.220;5.134;2022-10-16T13:47:49;101748.09;;;17.82;100.00
60373;BME280;46216;52.220;5.134;2022-10-16T13:50:18;101740.88;;;17.82;100.00
60373;BME280;46216;52.220;5.134;2022-10-16T13:52:44;101760.75;;;17.81;100.00
60373;BME280;46216;52.220;5.134;2022-10-16T13:57:36;101748.97;;;17.82;100.00
60373;BME280;46216;52.220;5.134;2022-10-16T14:00:01;101756.06;;;17.83;100.00
60373;BME280;46216;52.220;5.134;2022-10-16T14:02:31;101749.97;;;17.81;100.00
60373;BME280;46216;52.220;5.134;2022-10-16T14:05:01;101748.09;;;17.82;100.00
60373;BME280;46216;52.220;5.134;2022-10-16T14:07:29;101755.19;;;17.83;100.00
60373;BME280;46216;52.220;5.134;2022-10-16T14:10:04;101761.75;;;17.80;100.00
60373;BME280;46216;52.220;5.134;2022-10-16T14:12:30;101754.34;;;17.82;100.00
60373;BME280;46216;52.220;5.134;2022-10-16T14:14:57;101764.44;;;17.80;100.00
60373;BME280;46216;52.220;5.134;2022-10-16T14:17:34;101768.63;;;17.73;100.00
60373;BME280;46216;52.220;5.134;2022-10-16T14:20:03;101755.84;;;17.75;100.00
60373;BME280;46216;52.220;5.134;2022-10-16T14:22:37;101752.47;;;17.73;100.00
60373;BME280;46216;52.220;5.134;2022-10-16T14:27:57;101751.84;;;17.69;100.00
60373;BME280;46216;52.220;5.134;2022-10-16T14:30:23;101749.03;;;17.71;100.00
60373;BME280;46216;52.220;5.134;2022-10-16T14:33:05;101750.31;;;17.67;100.00
60373;BME280;46216;52.220;5.134;2022-10-16T14:35:36;101752.25;;;17.65;100.00
60373;BME280;46216;52.220;5.134;2022-10-16T14:38:03;101757.81;;;17.63;100.00